Silver City, New Mexico
Current Conditions -  °F | °C
As of 6:35 PM on Monday 22 Dec 2014 (Local Time) from KSVC Reporting Station
Clear Clear  
Wind Chill: 39°   Ceiling: Unl
Heat Index: 46°   Visibility: 10mi
Dew Point: 34°   Wind: 20mph
Humidity: 62%   Direction: 310°NW
Pressure: 29.85"   Gusts: NA
Location:  32.77°N, 108.27°W
Report Text: KSVC 230135Z AUTO 31017KT 10SM CLR 08/01 A2985 RMK AO2
Loading
Personal Weather Stations






























Interactive Weather Map New forecast layout! Learn more

10-Day Weather Forecast

Advertisements
Track Severe Weather on mobile